Time;durP1;ratioP1;P1;durP2;ratioP2;P2;SDS_P1;SDS_P2;PMS_P1;PMS_P2;Temp;Humidity;BMP_temperature;BMP_pressure;BME280_temperature;BME280_humidity;BME280_pressure;Samples;Min_cycle;Max_cycle;Signal;HPM_P1;HPM_P2
2023/03/13 00:00:29;;;;;;;3.53;3.20;;;;;;;0.66;72.36;62073.63;5022339;28;20219;-78
2023/03/13 00:02:56;;;;;;;3.60;3.30;;;;;;;0.67;72.31;62067.13;5008949;28;20554;-80
2023/03/13 00:05:25;;;;;;;4.07;2.67;;;;;;;0.58;72.88;62063.44;5008879;28;20200;-79
2023/03/13 00:07:52;;;;;;;4.63;3.83;;;;;;;0.58;73.54;62058.44;5019106;28;20265;-77
2023/03/13 00:10:19;;;;;;;3.42;3.13;;;;;;;0.58;74.24;62060.94;5015980;28;20282;-79
2023/03/13 00:12:46;;;;;;;2.65;2.45;;;;;;;0.56;73.97;62058.34;5007129;28;20219;-77
2023/03/13 00:15:13;;;;;;;3.15;2.95;;;;;;;0.54;74.27;62054.31;5009580;28;20476;-78
2023/03/13 00:17:40;;;;;;;3.28;3.03;;;;;;;0.53;74.66;62052.78;5008965;28;20226;-78
2023/03/13 00:20:08;;;;;;;2.72;2.53;;;;;;;0.59;74.70;62061.44;5026534;28;20245;-78
2023/03/13 00:22:36;;;;;;;2.38;2.28;;;;;;;0.55;75.22;62057.34;5027014;28;20226;-77
2023/03/13 00:25:03;;;;;;;3.47;3.17;;;;;;;0.48;75.14;62050.16;5027067;28;20265;-79
2023/03/13 00:27:33;;;;;;;3.13;2.72;;;;;;;0.40;75.42;62042.47;5025349;28;20523;-79
2023/03/13 00:30:00;;;;;;;3.40;3.10;;;;;;;0.42;75.56;62044.53;5028032;28;20222;-79
2023/03/13 00:32:26;;;;;;;3.42;2.80;;;;;;;0.42;75.72;62044.00;5030115;28;20222;-80
2023/03/13 00:34:53;;;;;;;3.97;3.60;;;;;;;0.41;75.44;62041.00;5027182;28;20197;-79
2023/03/13 00:37:20;;;;;;;3.50;3.20;;;;;;;0.33;75.04;62034.78;5013778;28;20223;-79
2023/03/13 00:39:49;;;;;;;3.67;3.05;;;;;;;0.35;74.54;62034.84;5016672;28;20237;-80
2023/03/13 00:42:16;;;;;;;3.45;3.13;;;;;;;0.33;74.86;62037.78;5027998;28;20228;-78
2023/03/13 00:44:43;;;;;;;3.60;3.30;;;;;;;0.29;75.28;62030.69;5025424;28;20205;-80
2023/03/13 00:47:10;;;;;;;3.47;3.22;;;;;;;0.32;75.43;62039.28;5025900;28;20230;-80
2023/03/13 00:49:37;;;;;;;4.10;3.58;;;;;;;0.30;75.13;62029.72;5028028;28;20221;-78
2023/03/13 00:52:04;;;;;;;4.55;3.67;;;;;;;0.35;74.80;62034.31;5027519;28;20222;-79
2023/03/13 00:54:31;;;;;;;3.92;3.53;;;;;;;0.31;74.68;62035.75;5019791;28;20287;-79
2023/03/13 00:56:59;;;;;;;3.53;3.28;;;;;;;0.36;75.26;62037.88;5010518;28;20228;-79
2023/03/13 00:59:26;;;;;;;3.97;3.58;;;;;;;0.32;74.68;62031.25;5007123;28;20234;-79
2023/03/13 01:01:53;;;;;;;3.80;3.47;;;;;;;0.31;74.30;62035.75;5012250;28;20230;-79
2023/03/13 01:04:20;;;;;;;3.35;3.05;;;;;;;0.25;75.11;62024.06;5027051;28;20396;-80
2023/03/13 01:06:47;;;;;;;3.60;3.30;;;;;;;0.25;75.74;62029.09;5028064;28;20250;-79
2023/03/13 01:09:15;;;;;;;4.90;3.42;;;;;;;0.14;75.22;62015.31;5027375;28;20194;-79
2023/03/13 01:11:44;;;;;;;3.90;3.60;;;;;;;0.21;75.01;62022.50;5025718;28;20226;-80
2023/03/13 01:14:14;;;;;;;3.78;3.47;;;;;;;0.03;75.20;62002.56;5027577;28;20214;-79
2023/03/13 01:16:41;;;;;;;3.70;3.40;;;;;;;0.10;75.34;62011.72;5027261;28;20218;-78
2023/03/13 01:19:11;;;;;;;3.58;3.35;;;;;;;0.14;74.93;62015.31;5026319;28;20235;-77
2023/03/13 01:21:39;;;;;;;3.63;3.33;;;;;;;0.01;76.12;62000.00;5027326;28;20215;-78
2023/03/13 01:24:06;;;;;;;5.45;3.10;;;;;;;0.02;76.48;62003.53;5027481;28;20199;-78
2023/03/13 01:26:33;;;;;;;2.95;2.75;;;;;;;0.03;76.90;62001.53;5025563;28;20285;-80
2023/03/13 01:29:00;;;;;;;3.45;3.15;;;;;;;0.06;75.06;62005.13;5023219;28;20242;-80
2023/03/13 01:31:31;;;;;;;3.80;2.88;;;;;;;0.05;75.11;62006.09;5024311;28;20257;-79
2023/03/13 01:34:00;;;;;;;3.33;3.13;;;;;;;0.10;75.19;62011.72;5026308;28;20188;-78
2023/03/13 01:36:28;;;;;;;3.60;3.28;;;;;;;0.10;74.52;62011.72;5030227;28;20241;-81
2023/03/13 01:38:57;;;;;;;3.05;2.85;;;;;;;0.12;74.69;62013.78;5029910;28;20293;-79
2023/03/13 01:41:25;;;;;;;2.75;2.65;;;;;;;0.08;76.06;62009.69;5031295;28;20277;-79
2023/03/13 01:43:54;;;;;;;3.83;3.30;;;;;;;0.17;75.02;62018.38;5028707;28;20213;-79
2023/03/13 01:46:23;;;;;;;3.55;3.25;;;;;;;0.10;75.11;62008.72;5010016;28;20231;-79
2023/03/13 01:48:55;;;;;;;3.78;3.30;;;;;;;0.02;75.48;62003.53;5023410;28;20214;-78
2023/03/13 01:51:26;;;;;;;4.60;3.40;;;;;;;0.12;74.70;62013.25;5028686;28;20223;-78
2023/03/13 01:54:00;;;;;;;3.15;2.92;;;;;;;0.07;74.15;62011.13;5029798;28;20562;-79
2023/03/13 01:56:32;;;;;;;3.38;3.17;;;;;;;0.16;74.12;62015.38;5033050;28;20260;-78
2023/03/13 01:59:00;;;;;;;2.80;2.60;;;;;;;0.15;73.83;62014.34;5030445;28;20289;-78
2023/03/13 02:01:28;;;;;;;3.15;2.88;;;;;;;0.18;72.78;62024.94;5029615;28;20257;-78
2023/03/13 02:03:57;;;;;;;3.17;2.97;;;;;;;0.15;73.26;62016.84;5025855;28;20253;-79
2023/03/13 02:06:27;;;;;;;3.63;3.35;;;;;;;0.08;73.53;62007.16;5025247;28;20223;-79
2023/03/13 02:08:57;;;;;;;3.00;2.50;;;;;;;0.11;73.42;62017.22;5026913;28;20236;-79
2023/03/13 02:11:31;;;;;;;3.28;2.97;;;;;;;0.11;73.35;62012.22;5018274;28;20230;-79
2023/03/13 02:14:00;;;;;;;3.25;3.05;;;;;;;0.08;72.24;62007.16;5026073;28;20202;-78
2023/03/13 02:16:28;;;;;;;2.90;2.70;;;;;;;0.12;72.77;62008.25;5029748;28;20229;-79
2023/03/13 02:18:57;;;;;;;3.40;3.20;;;;;;;0.15;72.26;62021.34;5029921;28;20582;-79
2023/03/13 02:21:36;;;;;;;4.68;2.97;;;;;;;0.16;72.21;62017.88;5026587;28;20285;-79
2023/03/13 02:24:12;;;;;;;2.72;2.63;;;;;;;0.09;72.63;62010.19;5009003;28;20196;-79
2023/03/13 02:26:40;;;;;;;2.95;2.65;;;;;;;0.09;73.72;62008.19;5026341;28;20218;-77
2023/03/13 02:29:08;;;;;;;3.10;2.83;;;;;;;0.08;72.91;62004.66;5027804;28;20241;-78
2023/03/13 02:31:35;;;;;;;2.85;2.60;;;;;;;0.03;74.53;62004.56;5029893;28;20430;-79
2023/03/13 02:34:04;;;;;;;2.83;2.63;;;;;;;0.02;74.13;62003.53;5027947;28;20446;-78
2023/03/13 02:36:31;;;;;;;3.67;2.65;;;;;;;0.07;74.03;62006.13;5018031;28;20237;-77
2023/03/13 02:39:03;;;;;;;5.35;2.80;;;;;;;0.02;73.85;62000.53;5026966;28;20214;-77
2023/03/13 02:41:31;;;;;;;2.85;2.55;;;;;;;-0.04;74.51;62000.41;5028625;28;20222;-78
2023/03/13 02:44:00;;;;;;;5.28;3.30;;;;;;;-0.03;73.77;62001.41;5028571;28;20206;-78
2023/03/13 02:46:27;;;;;;;4.45;2.70;;;;;;;-0.07;74.53;61999.81;5025696;28;20244;-79
2023/03/13 02:48:56;;;;;;;2.50;2.40;;;;;;;-0.20;74.59;61980.97;5027052;28;20199;-78
2023/03/13 02:51:28;;;;;;;3.60;3.28;;;;;;;-0.15;75.13;61986.63;5027833;28;20414;-78
2023/03/13 02:54:00;;;;;;;3.45;2.78;;;;;;;-0.20;75.23;61980.97;5029681;28;20199;-78
2023/03/13 02:56:30;;;;;;;3.20;2.92;;;;;;;-0.23;74.42;61975.41;5026492;28;20265;-78
2023/03/13 02:58:57;;;;;;;3.97;3.67;;;;;;;-0.25;75.17;61973.34;5028844;28;20526;-78
2023/03/13 03:01:25;;;;;;;4.15;3.60;;;;;;;-0.27;75.82;61974.31;5011684;28;20219;-79
2023/03/13 03:03:52;;;;;;;2.90;2.63;;;;;;;-0.25;76.28;61978.34;5012110;28;20203;-78
2023/03/13 03:06:19;;;;;;;3.53;3.13;;;;;;;-0.28;76.73;61970.81;5027965;28;20236;-78
2023/03/13 03:08:47;;;;;;;8.15;3.20;;;;;;;-0.24;76.82;61974.88;5019583;28;20205;-77
2023/03/13 03:11:14;;;;;;;2.90;2.70;;;;;;;-0.21;75.68;61977.97;5028781;28;20290;-78
2023/03/13 03:13:41;;;;;;;2.85;2.65;;;;;;;-0.20;74.91;61978.47;5027754;28;20291;-78
2023/03/13 03:16:09;;;;;;;2.75;2.55;;;;;;;-0.25;75.36;61973.34;5020760;28;20217;-77
2023/03/13 03:18:38;;;;;;;2.92;2.72;;;;;;;-0.31;75.68;61972.72;5008964;28;20206;-78
2023/03/13 03:21:05;;;;;;;2.88;2.63;;;;;;;-0.35;75.73;61965.63;5008724;28;20235;-79
2023/03/13 03:23:33;;;;;;;2.95;2.53;;;;;;;-0.30;76.29;61971.25;5023024;28;20407;-78
2023/03/13 03:26:00;;;;;;;3.55;2.90;;;;;;;-0.35;76.36;61963.13;5028179;28;20210;-78
2023/03/13 03:28:27;;;;;;;3.17;2.88;;;;;;;-0.40;76.62;61958.00;5027440;28;20241;-78
2023/03/13 03:30:55;;;;;;;2.88;2.67;;;;;;;-0.34;76.81;61964.13;5027988;28;20207;-77
2023/03/13 03:33:22;;;;;;;3.75;3.00;;;;;;;-0.51;77.74;61949.75;5025317;28;20210;-77
2023/03/13 03:35:50;;;;;;;5.45;3.60;;;;;;;-0.47;78.15;61953.31;5027855;28;20230;-77
2023/03/13 03:38:17;;;;;;;3.90;3.15;;;;;;;-0.47;78.28;61955.81;5013816;28;20295;-77
2023/03/13 03:40:44;;;;;;;4.30;3.92;;;;;;;-0.43;77.31;61959.94;5016915;28;20237;-77
2023/03/13 03:43:12;;;;;;;4.05;3.65;;;;;;;-0.52;78.49;61951.19;5026278;28;20222;-77
2023/03/13 03:45:39;;;;;;;3.67;3.45;;;;;;;-0.49;78.83;61954.28;5022416;28;20241;-77
2023/03/13 03:48:06;;;;;;;4.22;3.90;;;;;;;-0.53;79.11;61945.19;5015434;28;20222;-78
2023/03/13 03:50:33;;;;;;;5.28;3.88;;;;;;;-0.54;79.17;61946.16;5020209;28;20261;-77
2023/03/13 03:53:01;;;;;;;4.15;3.75;;;;;;;-0.53;79.28;61944.66;5028343;28;20225;-79
2023/03/13 03:55:28;;;;;;;4.65;3.67;;;;;;;-0.56;79.25;61942.13;5026578;28;20230;-76
2023/03/13 03:57:55;;;;;;;4.97;4.15;;;;;;;-0.61;79.04;61939.50;5011474;28;20238;-78
2023/03/13 04:00:22;;;;;;;6.13;4.53;;;;;;;-0.61;79.78;61941.47;5025443;28;20237;-77
2023/03/13 04:02:49;;;;;;;4.63;4.05;;;;;;;-0.70;80.55;61932.25;5021360;28;20421;-77
2023/03/13 04:05:16;;;;;;;5.10;4.70;;;;;;;-0.72;81.15;61925.72;5006783;28;20205;-78
2023/03/13 04:07:43;;;;;;;6.35;4.75;;;;;;;-0.80;81.88;61917.53;5016959;28;20226;-78
2023/03/13 04:10:12;;;;;;;9.32;5.28;;;;;;;-0.81;82.69;61916.00;5025739;28;20207;-77
2023/03/13 04:12:39;;;;;;;5.90;5.28;;;;;;;-0.79;83.28;61918.03;5025859;28;20218;-77
2023/03/13 04:15:07;;;;;;;5.85;5.00;;;;;;;-0.80;83.89;61917.03;5026703;28;20266;-77
2023/03/13 04:17:35;;;;;;;4.55;4.15;;;;;;;-0.90;84.52;61911.78;5025007;28;20226;-77
2023/03/13 04:20:03;;;;;;;5.53;4.40;;;;;;;-0.92;85.24;61907.25;5007887;28;20235;-78
2023/03/13 04:22:30;;;;;;;7.95;4.38;;;;;;;-0.91;85.94;61908.78;5007511;28;20242;-78
2023/03/13 04:24:57;;;;;;;6.15;5.28;;;;;;;-0.90;86.77;61907.31;5010940;28;20226;-76
2023/03/13 04:27:25;;;;;;;7.28;4.85;;;;;;;-0.93;87.56;61906.22;5020954;28;20261;-77
2023/03/13 04:29:52;;;;;;;5.43;4.90;;;;;;;-0.96;88.23;61901.16;5026110;28;20205;-77
2023/03/13 04:32:19;;;;;;;6.80;5.32;;;;;;;-0.97;88.13;61905.13;5024397;28;20218;-77
2023/03/13 04:34:46;;;;;;;5.57;5.05;;;;;;;-1.00;88.30;61899.06;5025652;28;20202;-77
2023/03/13 04:37:13;;;;;;;6.68;5.45;;;;;;;-1.05;88.45;61891.94;5006472;28;20220;-77
2023/03/13 04:39:40;;;;;;;5.88;5.18;;;;;;;-1.11;89.12;61885.28;5006331;28;20595;-77
2023/03/13 04:42:07;;;;;;;8.60;6.18;;;;;;;-1.02;88.71;61897.00;5019652;28;20230;-78
2023/03/13 04:44:35;;;;;;;8.63;5.13;;;;;;;-1.07;89.31;61892.38;5022361;28;20226;-77
2023/03/13 04:47:03;;;;;;;7.50;5.25;;;;;;;-1.09;89.59;61892.84;5025265;28;20223;-77
2023/03/13 04:49:30;;;;;;;8.77;5.47;;;;;;;-1.23;89.97;61878.53;5025439;28;20209;-77
2023/03/13 04:51:57;;;;;;;8.43;5.63;;;;;;;-1.14;89.54;61884.72;5024619;28;20289;-76
2023/03/13 04:54:24;;;;;;;5.97;4.88;;;;;;;-1.13;88.83;61883.75;5025827;28;20378;-76
2023/03/13 04:56:50;;;;;;;5.03;4.60;;;;;;;-1.23;89.75;61878.53;5026278;28;20222;-78
2023/03/13 04:59:18;;;;;;;7.82;4.90;;;;;;;-1.25;91.02;61874.50;5025834;28;20367;-77
2023/03/13 05:01:46;;;;;;;3.95;3.65;;;;;;;-1.25;90.90;61873.97;5021682;28;20230;-76
2023/03/13 05:04:13;;;;;;;3.13;2.92;;;;;;;-1.26;91.36;61870.47;5023986;28;20204;-77
2023/03/13 05:06:40;;;;;;;3.35;3.15;;;;;;;-1.15;90.96;61884.22;5024881;28;20266;-77
2023/03/13 05:09:07;;;;;;;6.60;3.65;;;;;;;-1.19;90.27;61880.63;5023423;28;20431;-77
2023/03/13 05:11:34;;;;;;;5.25;4.60;;;;;;;-1.05;90.32;61894.44;5015368;28;20227;-76
2023/03/13 05:14:01;;;;;;;8.88;4.78;;;;;;;-1.07;90.79;61894.38;5016246;28;20237;-76
2023/03/13 05:16:28;;;;;;;5.07;4.50;;;;;;;-1.02;90.87;61897.00;5026714;28;20429;-77
2023/03/13 05:18:56;;;;;;;5.97;5.03;;;;;;;-0.94;90.74;61905.72;5026016;28;20196;-76
2023/03/13 05:21:23;;;;;;;7.88;4.38;;;;;;;-0.93;90.85;61909.22;5019306;28;20428;-77
2023/03/13 05:23:50;;;;;;;5.07;4.05;;;;;;;-0.81;90.76;61913.50;5029777;28;20227;-76
2023/03/13 05:26:17;;;;;;;4.95;3.70;;;;;;;-0.71;91.35;61931.25;5026407;28;20250;-77
2023/03/13 05:28:44;;;;;;;5.72;4.25;;;;;;;-0.65;91.21;61932.91;5029128;28;20460;-77
2023/03/13 05:31:11;;;;;;;21.23;16.52;;;;;;;-0.60;91.20;61937.50;5028713;28;20386;-79
2023/03/13 05:33:38;;;;;;;18.35;12.13;;;;;;;-0.50;91.54;61950.25;5027063;28;20218;-78
2023/03/13 05:36:07;;;;;;;8.55;7.60;;;;;;;-0.40;89.86;61963.00;5026412;28;20257;-79
2023/03/13 05:38:34;;;;;;;9.52;7.50;;;;;;;-0.39;88.84;61964.53;5030338;28;20260;-77
2023/03/13 05:41:01;;;;;;;6.78;5.53;;;;;;;-0.20;87.12;61980.97;5024276;28;20243;-77
2023/03/13 05:43:28;;;;;;;6.65;6.00;;;;;;;-0.12;86.38;61991.66;5028159;28;20265;-79
2023/03/13 05:45:55;;;;;;;7.22;6.25;;;;;;;-0.11;84.67;61987.69;5027872;28;20222;-78
2023/03/13 05:48:22;;;;;;;8.43;6.22;;;;;;;-0.14;85.09;61985.13;5021945;28;20266;-78
2023/03/13 05:50:49;;;;;;;7.10;6.40;;;;;;;0.00;85.63;61996.97;5011075;28;20274;-77
2023/03/13 05:53:17;;;;;;;8.50;6.35;;;;;;;0.22;85.21;62024.03;5020656;28;20218;-78
2023/03/13 05:55:44;;;;;;;7.28;6.43;;;;;;;0.37;84.36;62036.38;5025829;28;20203;-77
2023/03/13 05:58:11;;;;;;;8.32;6.80;;;;;;;0.50;85.16;62050.22;5009274;28;20227;-77
2023/03/13 06:00:38;;;;;;;8.82;7.10;;;;;;;0.45;84.16;62042.09;5008629;28;20242;-77
2023/03/13 06:03:05;;;;;;;11.45;6.53;;;;;;;0.42;84.37;62042.03;5027299;28;20589;-77
2023/03/13 06:05:32;;;;;;;8.77;6.57;;;;;;;0.31;82.83;62030.72;5019940;28;20519;-77
2023/03/13 06:07:59;;;;;;;7.40;6.70;;;;;;;0.24;82.97;62021.06;5022598;28;20665;-78
2023/03/13 06:10:28;;;;;;;8.15;6.30;;;;;;;0.54;84.31;62053.81;5019191;28;20207;-77
2023/03/13 06:12:55;;;;;;;11.40;6.90;;;;;;;0.69;80.37;62069.69;5026450;28;20218;-78
2023/03/13 06:15:23;;;;;;;7.07;6.30;;;;;;;0.69;80.26;62066.69;5014053;28;20207;-77
2023/03/13 06:17:50;;;;;;;8.38;7.10;;;;;;;0.76;78.34;62078.88;5007860;28;20220;-77
2023/03/13 06:20:18;;;;;;;7.90;6.97;;;;;;;0.97;77.71;62100.41;5023071;28;20226;-78
2023/03/13 06:22:45;;;;;;;10.13;6.35;;;;;;;0.79;77.93;62082.47;5023590;28;20215;-78
2023/03/13 06:25:11;;;;;;;11.02;6.53;;;;;;;0.79;76.25;62082.47;5017890;28;20191;-77
2023/03/13 06:27:40;;;;;;;8.50;6.72;;;;;;;0.95;75.71;62093.34;5008638;28;20223;-77
2023/03/13 06:30:12;;;;;;;7.65;6.00;;;;;;;0.99;76.52;62099.94;5027438;28;20214;-78
2023/03/13 06:32:39;;;;;;;7.30;6.15;;;;;;;1.14;76.94;62117.84;5027615;28;20242;-78
2023/03/13 06:35:06;;;;;;;9.48;6.88;;;;;;;1.20;75.49;62121.50;5026077;28;20225;-77
2023/03/13 06:37:34;;;;;;;8.98;6.75;;;;;;;1.06;75.55;62107.66;5027027;28;20289;-77
2023/03/13 06:40:03;;;;;;;8.75;7.32;;;;;;;1.13;75.45;62114.31;5029179;28;20191;-80
2023/03/13 06:42:30;;;;;;;8.55;6.90;;;;;;;1.19;74.31;62120.47;5024089;28;20282;-78
2023/03/13 06:44:58;;;;;;;9.90;7.53;;;;;;;1.19;73.85;62123.50;5027091;28;20210;-78
2023/03/13 06:47:25;;;;;;;12.07;7.53;;;;;;;1.36;74.09;62139.91;5025540;28;20222;-78
2023/03/13 06:49:52;;;;;;;15.77;7.43;;;;;;;1.55;72.68;62157.41;5025434;28;20230;-78
2023/03/13 06:52:19;;;;;;;8.25;7.45;;;;;;;1.68;71.48;62172.75;5022181;28;20226;-77
2023/03/13 06:54:46;;;;;;;15.05;7.32;;;;;;;1.80;70.94;62185.06;5027889;28;20207;-78
2023/03/13 06:57:13;;;;;;;9.10;7.15;;;;;;;1.83;69.28;62183.13;5020780;28;20281;-79
2023/03/13 06:59:41;;;;;;;11.23;6.32;;;;;;;1.82;70.81;62187.13;5027618;28;20202;-78
2023/03/13 07:02:11;;;;;;;10.25;6.22;;;;;;;1.85;70.91;62190.72;5023543;28;20471;-77
2023/03/13 07:04:38;;;;;;;12.60;8.00;;;;;;;1.67;72.14;62172.25;5027132;28;20267;-79
2023/03/13 07:07:05;;;;;;;12.52;7.20;;;;;;;1.67;70.26;62172.25;5026961;28;20215;-78
2023/03/13 07:09:32;;;;;;;9.10;7.05;;;;;;;1.89;69.73;62194.31;5031830;28;20199;-78
2023/03/13 07:11:59;;;;;;;8.63;7.72;;;;;;;1.91;68.85;62199.38;5027847;28;20214;-79
2023/03/13 07:14:26;;;;;;;13.55;7.78;;;;;;;1.94;69.42;62199.97;5026578;28;20195;-78
2023/03/13 07:16:53;;;;;;;8.90;7.03;;;;;;;1.80;71.23;62185.56;5026784;28;20238;-78
2023/03/13 07:19:21;;;;;;;9.85;7.30;;;;;;;1.88;70.82;62193.28;5026396;28;20202;-77
2023/03/13 07:21:48;;;;;;;12.00;8.15;;;;;;;1.96;72.35;62201.50;5021624;28;20242;-78
2023/03/13 07:24:15;;;;;;;10.82;8.18;;;;;;;1.63;72.25;62168.13;5028824;28;20262;-77
2023/03/13 07:26:42;;;;;;;11.77;8.57;;;;;;;1.73;72.61;62175.88;5026328;28;20214;-78
2023/03/13 07:29:08;;;;;;;7.75;6.93;;;;;;;1.84;71.54;62192.19;5025886;28;20207;-79
2023/03/13 07:31:36;;;;;;;13.90;8.35;;;;;;;1.99;72.20;62205.09;5026215;28;20249;-80
2023/03/13 07:34:02;;;;;;;11.55;8.43;;;;;;;2.15;71.72;62221.53;5025985;28;20237;-77
2023/03/13 07:36:34;;;;;;;13.48;8.18;;;;;;;2.16;70.16;62217.53;5026695;28;20253;-78
2023/03/13 07:39:01;;;;;;;11.00;7.53;;;;;;;2.28;69.73;62234.34;5029821;28;20194;-77
2023/03/13 07:41:28;;;;;;;10.52;8.10;;;;;;;2.43;67.52;62249.75;5027144;28;20242;-78
2023/03/13 07:43:55;;;;;;;11.40;7.85;;;;;;;2.33;67.39;62240.00;5025283;28;20277;-79
2023/03/13 07:46:22;;;;;;;14.05;8.32;;;;;;;2.34;69.14;62241.03;5022683;28;20226;-79
2023/03/13 07:48:49;;;;;;;10.88;8.00;;;;;;;2.51;69.58;62257.97;5024894;28;20214;-77
2023/03/13 07:51:17;;;;;;;12.35;8.48;;;;;;;2.69;68.49;62268.41;5027071;28;20223;-77
2023/03/13 07:53:50;;;;;;;15.20;7.97;;;;;;;3.03;66.66;62310.91;5026291;28;20346;-79
2023/03/13 07:56:19;;;;;;;11.98;9.20;;;;;;;3.08;65.96;62311.53;5027971;28;20226;-78
2023/03/13 07:58:46;;;;;;;12.15;8.48;;;;;;;3.12;64.03;62315.63;5024175;28;20472;-78
2023/03/13 08:01:15;;;;;;;13.40;8.65;;;;;;;3.36;64.10;62349.84;5026833;28;20535;-78
2023/03/13 08:03:43;;;;;;;14.25;8.75;;;;;;;3.36;63.27;62345.34;5025977;28;20241;-78
2023/03/13 08:06:12;;;;;;;8.95;7.30;;;;;;;3.43;63.36;62350.00;5025900;28;20214;-77
2023/03/13 08:08:40;;;;;;;13.13;8.50;;;;;;;3.28;62.48;62334.06;5022463;28;20205;-78
2023/03/13 08:11:10;;;;;;;11.52;8.45;;;;;;;3.54;63.60;62360.81;5027080;28;20217;-77
2023/03/13 08:13:38;;;;;;;9.20;7.68;;;;;;;3.57;61.71;62365.91;5023240;28;20203;-77
2023/03/13 08:16:07;;;;;;;10.23;7.80;;;;;;;3.48;60.67;62352.66;5022967;28;20425;-78
2023/03/13 08:18:35;;;;;;;8.98;8.05;;;;;;;3.48;61.12;62354.63;5026235;28;20233;-77
2023/03/13 08:21:03;;;;;;;13.93;8.23;;;;;;;3.56;61.29;62365.38;5023091;28;20260;-77
2023/03/13 08:23:30;;;;;;;15.20;8.02;;;;;;;3.84;61.32;62393.66;5022242;28;20217;-76
2023/03/13 08:26:01;;;;;;;11.85;8.48;;;;;;;3.97;60.39;62404.53;5024355;28;20444;-79
2023/03/13 08:28:29;;;;;;;8.93;7.15;;;;;;;4.09;59.09;62419.38;5021859;28;20206;-78
2023/03/13 08:30:56;;;;;;;15.35;8.50;;;;;;;4.04;58.40;62414.25;5021634;28;20227;-78
2023/03/13 08:33:23;;;;;;;12.57;9.40;;;;;;;4.07;59.14;62417.81;5024410;28;20199;-79
2023/03/13 08:35:50;;;;;;;13.77;9.20;;;;;;;4.02;60.00;62414.69;5024068;28;20264;-76
2023/03/13 08:38:17;;;;;;;11.98;9.65;;;;;;;3.87;59.49;62394.75;5025826;28;20215;-77
2023/03/13 08:40:44;;;;;;;18.10;11.05;;;;;;;3.71;62.16;62377.78;5025881;28;20202;-77
2023/03/13 08:43:11;;;;;;;15.00;10.32;;;;;;;3.96;61.37;62409.03;5026488;28;20438;-77
2023/03/13 08:45:40;;;;;;;12.30;10.32;;;;;;;4.05;62.46;62415.25;5021892;28;20219;-78
2023/03/13 08:48:07;;;;;;;17.10;11.85;;;;;;;3.99;61.82;62406.56;5021280;28;20227;-78
2023/03/13 08:50:33;;;;;;;11.15;9.85;;;;;;;4.18;60.70;62426.63;5021729;28;20203;-77
2023/03/13 08:53:01;;;;;;;15.73;11.32;;;;;;;4.22;61.45;62430.22;5027213;28;20237;-78
2023/03/13 08:55:28;;;;;;;19.00;10.95;;;;;;;4.43;61.12;62451.84;5028402;28;20199;-78
2023/03/13 08:57:54;;;;;;;16.63;11.25;;;;;;;4.83;60.78;62492.50;5025185;28;20273;-77
2023/03/13 09:00:22;;;;;;;12.95;10.32;;;;;;;5.13;59.49;62523.38;5021394;28;20274;-78
2023/03/13 09:02:50;;;;;;;13.38;10.00;;;;;;;5.22;56.20;62537.72;5026963;28;20527;-78
2023/03/13 09:05:17;;;;;;;10.90;9.25;;;;;;;5.33;55.84;62544.50;5025100;28;20250;-78
2023/03/13 09:07:44;;;;;;;13.20;9.55;;;;;;;5.47;56.16;62558.41;5022411;28;20232;-76
2023/03/13 09:10:11;;;;;;;14.63;9.63;;;;;;;5.59;56.84;62573.81;5013570;28;20266;-78
2023/03/13 09:12:39;;;;;;;15.32;10.52;;;;;;;5.60;54.50;62574.31;5011924;28;20567;-77
2023/03/13 09:15:08;;;;;;;15.05;10.80;;;;;;;5.54;55.47;62573.72;5019263;28;20346;-78
2023/03/13 09:17:35;;;;;;;14.05;9.80;;;;;;;5.79;55.77;62591.91;5024095;28;20226;-78
2023/03/13 09:20:04;;;;;;;15.65;10.65;;;;;;;5.89;54.79;62601.69;5021613;28;20199;-77
2023/03/13 09:22:31;;;;;;;15.52;10.80;;;;;;;5.75;55.36;62590.31;5020933;28;20249;-78
2023/03/13 09:24:58;;;;;;;15.40;10.60;;;;;;;5.90;55.32;62604.75;5026454;28;20205;-77
2023/03/13 09:27:27;;;;;;;20.17;12.15;;;;;;;5.84;55.16;62599.59;5024688;28;20227;-79
2023/03/13 09:29:53;;;;;;;13.80;9.95;;;;;;;5.88;54.10;62602.69;5025575;28;20314;-76
2023/03/13 09:32:20;;;;;;;12.05;10.68;;;;;;;5.85;54.13;62600.63;5025132;28;20252;-78
2023/03/13 09:34:47;;;;;;;12.07;10.52;;;;;;;5.74;54.39;62588.75;5025190;28;20199;-78
2023/03/13 09:37:16;;;;;;;15.50;10.77;;;;;;;5.79;54.71;62591.38;5021834;28;20297;-76
2023/03/13 09:39:43;;;;;;;13.35;10.13;;;;;;;5.84;54.92;62602.13;5026405;28;20199;-77
2023/03/13 09:42:15;;;;;;;24.00;12.00;;;;;;;6.18;53.98;62631.09;5025073;28;20238;-77
2023/03/13 09:44:47;;;;;;;15.43;10.75;;;;;;;5.99;54.12;62616.56;5022724;28;20512;-77
2023/03/13 09:47:21;;;;;;;13.35;10.25;;;;;;;5.76;54.26;62591.31;5024724;28;20395;-78
2023/03/13 09:49:53;;;;;;;21.55;10.10;;;;;;;6.09;53.88;62626.84;5028033;28;20281;-77
2023/03/13 09:52:23;;;;;;;18.48;10.40;;;;;;;6.26;52.96;62641.84;5024146;28;20250;-76
2023/03/13 09:54:54;;;;;;;16.08;10.40;;;;;;;6.29;53.38;62645.47;5022351;28;20270;-77
2023/03/13 09:57:28;;;;;;;13.55;11.30;;;;;;;6.25;52.87;62640.81;5026374;28;20227;-77
2023/03/13 10:00:01;;;;;;;20.92;10.95;;;;;;;6.58;52.33;62672.84;5027334;28;20447;-77
2023/03/13 10:02:31;;;;;;;16.13;10.40;;;;;;;6.37;52.37;62653.69;5020004;28;20246;-78
2023/03/13 10:05:05;;;;;;;18.02;12.52;;;;;;;6.53;51.68;62672.22;5025850;28;20266;-77
2023/03/13 10:07:34;;;;;;;12.52;9.50;;;;;;;6.34;51.74;62655.16;5027235;28;20215;-77
2023/03/13 10:10:02;;;;;;;15.25;10.80;;;;;;;6.54;52.72;62670.72;5030745;28;20194;-78
2023/03/13 10:12:31;;;;;;;14.68;9.70;;;;;;;6.87;51.22;62704.75;5028708;28;20238;-78
2023/03/13 10:15:17;;;;;;;16.67;10.23;;;;;;;7.02;51.09;62720.75;5028392;28;20448;-77
2023/03/13 10:17:45;;;;;;;13.88;9.82;;;;;;;7.01;50.87;62721.72;5027747;28;20226;-78
2023/03/13 10:20:22;;;;;;;15.27;9.63;;;;;;;6.93;50.71;62711.47;5030607;28;20481;-77
2023/03/13 10:22:55;;;;;;;12.30;10.63;;;;;;;6.95;50.20;62713.50;5028139;28;20276;-77
2023/03/13 10:25:30;;;;;;;11.65;10.43;;;;;;;7.12;50.41;62730.56;5029475;28;20249;-77
2023/03/13 10:27:58;;;;;;;17.40;11.07;;;;;;;7.20;49.90;62736.25;5030443;28;20429;-78
2023/03/13 10:30:28;;;;;;;14.65;10.05;;;;;;;7.44;50.04;62763.56;5028026;28;20221;-78
2023/03/13 10:32:59;;;;;;;14.85;9.68;;;;;;;7.76;48.55;62796.59;5029346;28;20297;-77
2023/03/13 10:35:33;;;;;;;10.82;9.57;;;;;;;7.83;47.78;62803.84;5030284;28;20198;-77
2023/03/13 10:38:05;;;;;;;13.77;9.45;;;;;;;7.94;47.85;62815.19;5028283;28;20215;-77
2023/03/13 10:40:32;;;;;;;11.70;9.38;;;;;;;7.98;47.06;62816.25;5029230;28;20363;-77
2023/03/13 10:43:04;;;;;;;12.02;9.88;;;;;;;7.83;48.01;62803.84;5028599;28;20265;-76
2023/03/13 10:45:36;;;;;;;10.45;9.30;;;;;;;7.98;48.51;62816.25;5028740;28;20253;-77
2023/03/13 10:48:13;;;;;;;15.50;9.80;;;;;;;8.20;48.27;62842.03;5028415;28;20546;-76
2023/03/13 10:50:44;;;;;;;14.68;9.93;;;;;;;8.20;47.64;62847.09;5012704;28;20500;-77
2023/03/13 10:53:31;;;;;;;21.65;9.95;;;;;;;8.27;46.83;62850.78;5014405;28;20297;-76
2023/03/13 10:56:03;;;;;;;10.68;8.80;;;;;;;8.50;46.75;62872.53;5028057;28;20195;-79
2023/03/13 10:58:35;;;;;;;12.88;9.75;;;;;;;8.16;46.82;62835.34;5025457;28;20203;-76
2023/03/13 11:01:21;;;;;;;15.27;9.85;;;;;;;8.24;46.41;62845.16;5026672;28;20202;-78
2023/03/13 11:03:50;;;;;;;11.60;9.20;;;;;;;8.59;46.71;62881.31;5024222;28;20202;-78
2023/03/13 11:06:28;;;;;;;15.77;10.27;;;;;;;8.52;46.81;62874.59;5028463;28;20531;-78
2023/03/13 11:09:16;;;;;;;13.85;10.55;;;;;;;8.50;46.58;62874.53;5022675;28;20241;-77
2023/03/13 11:11:47;;;;;;;12.82;10.65;;;;;;;8.40;46.23;62864.22;5028446;28;20222;-78
2023/03/13 11:14:17;;;;;;;19.63;10.70;;;;;;;8.33;46.93;62860.03;5028184;28;20271;-81
2023/03/13 11:16:49;;;;;;;11.52;8.98;;;;;;;8.14;46.85;62835.31;5026675;28;20605;-77
2023/03/13 11:19:46;;;;;;;12.80;10.02;;;;;;;8.30;46.58;62854.38;5029740;28;20258;-77
2023/03/13 11:22:26;;;;;;;15.90;10.38;;;;;;;8.23;46.77;62847.16;5018635;28;20246;-80
2023/03/13 11:25:03;;;;;;;13.23;10.00;;;;;;;8.20;47.21;62842.03;5023132;28;20195;-77
2023/03/13 11:27:36;;;;;;;10.75;9.32;;;;;;;8.34;46.72;62856.00;5027892;28;20581;-79
2023/03/13 11:30:21;;;;;;;15.73;10.50;;;;;;;8.31;46.60;62850.34;5027647;28;20214;-78
2023/03/13 11:32:52;;;;;;;21.20;10.05;;;;;;;8.43;46.35;62865.28;5026729;28;20472;-78
2023/03/13 11:35:40;;;;;;;22.13;10.65;;;;;;;8.37;46.23;62858.59;5026578;28;20209;-77
2023/03/13 11:38:13;;;;;;;13.38;9.60;;;;;;;8.43;46.82;62865.28;5025518;28;20222;-77
2023/03/13 11:40:49;;;;;;;12.82;10.73;;;;;;;8.33;46.59;62849.91;5020359;28;20492;-78